Litchfield, MN

1:07 AM CDT on July 24, 2016 (GMT -0500)
Litchfield Municipal

Weather History for KLJF - October, 2011

Change the Weather History Date:

Tuesday, October 18, 2011

  Actual Average Record
Temperature  
Mean Temperature 39 °F -  
Max Temperature 46 °F 56 °F 79 °F (1953)
Min Temperature 32 °F 35 °F 15 °F (1972)
Degree Days  
Heating Degree Days 26    
Moisture  
Dew Point 30 °F    
Average Humidity 69    
Maximum Humidity 87    
Minimum Humidity 46    
Precipitation  
Precipitation 0.00 in - - ()
Sea Level Pressure  
Sea Level Pressure 30.01 in    
Wind  
Wind Speed 10 mph (NNW)    
Max Wind Speed 18 mph    
Max Gust Speed 26 mph    
Visibility 10 miles    
Events      
Averages and records for this station are not official NWS values.
T = Trace of Precipitation, MM = Missing Value Source: NWS Daily Summary

Daily Weather History Graph

Daily Weather History Graph

Search for Another Location

Airport or City:

Trip Planner

Search our weather history database for the weather conditions in past years. The results will help you decide how hot, cold, wet, or windy it might be!

Date:

Astronomy

Oct. 18, 2011 Rise Set
Actual Time 7:37 AM CDT 6:28 PM CDT
Civil Twilight 7:07 AM CDT 6:57 PM CDT
Nautical Twilight 6:33 AM CDT 7:32 PM CDT
Astronomical Twilight 5:59 AM CDT 8:06 PM CDT
Moon 11:01 PM CDT (10/18) 1:38 PM CDT (10/18)
Length of Visible Light 11h 50m
Length of Day
10h 50m
Waning Gibbous, 64% of the Moon is Illuminated
Oct 18
Waning Gibbous
Oct 19
Last Quarter
Oct 26
New
Nov 2
First Quarter
Nov 10
Full

Hourly Weather History & Observations

Time (CDT) Temp. Windchill Dew Point Humidity Pressure Visibility Wind Dir Wind Speed Gust Speed Precip Events Conditions
12:13 AM 42.8 °F 38.6 °F 28.4 °F 57% 29.91 in 10.0 mi NW 6.9 mph - N/A   Clear
12:33 AM 41.0 °F 34.7 °F 28.4 °F 61% 29.91 in 10.0 mi NW 10.4 mph - N/A   Clear
1:12 AM 39.2 °F 33.0 °F 28.4 °F 65% 29.91 in 10.0 mi WNW 9.2 mph 16.1 mph N/A   Clear
1:33 AM 39.2 °F 33.0 °F 28.4 °F 65% 29.91 in 10.0 mi NW 9.2 mph 16.1 mph N/A   Clear
1:53 AM 39.2 °F 33.6 °F 28.4 °F 65% 29.91 in 10.0 mi NW 8.1 mph 16.1 mph N/A   Clear
2:12 AM 39.2 °F 33.6 °F 28.4 °F 65% 29.92 in 10.0 mi NW 8.1 mph - N/A   Clear
2:33 AM 37.4 °F 32.1 °F 30.2 °F 75% 29.92 in 10.0 mi NW 6.9 mph - N/A   Clear
2:53 AM 37.4 °F 31.4 °F 30.2 °F 75% 29.92 in 10.0 mi NW 8.1 mph - N/A   Clear
3:12 AM 37.4 °F 32.1 °F 30.2 °F 75% 29.93 in 10.0 mi NW 6.9 mph - N/A   Clear
3:33 AM 35.6 °F 29.9 °F 32.0 °F 87% 29.92 in 10.0 mi NW 6.9 mph - N/A   Clear
3:53 AM 35.6 °F 29.9 °F 32.0 °F 87% 29.93 in 10.0 mi NW 6.9 mph - N/A   Scattered Clouds
4:12 AM 35.6 °F 29.2 °F 32.0 °F 87% 29.93 in 10.0 mi NW 8.1 mph - N/A   Scattered Clouds
4:33 AM 37.4 °F 30.8 °F 33.8 °F 87% 29.94 in 10.0 mi NW 9.2 mph - N/A   Mostly Cloudy
4:53 AM 37.4 °F 28.9 °F 33.8 °F 87% 29.94 in 10.0 mi NW 13.8 mph 17.3 mph N/A   Overcast
5:12 AM 37.4 °F 30.8 °F 33.8 °F 87% 29.95 in 10.0 mi NW 9.2 mph - N/A   Overcast
5:33 AM 39.2 °F 33.0 °F 33.8 °F 81% 29.96 in 10.0 mi NNW 9.2 mph - N/A   Overcast
5:53 AM 39.2 °F 32.5 °F 33.8 °F 81% 29.96 in 10.0 mi NNW 10.4 mph - N/A   Overcast
6:13 AM 39.2 °F 33.0 °F 33.8 °F 81% 29.98 in 10.0 mi NNW 9.2 mph - N/A   Overcast
6:33 AM 39.2 °F 33.0 °F 35.6 °F 87% 29.99 in 10.0 mi NW 9.2 mph - N/A   Overcast
6:52 AM 39.2 °F 32.0 °F 35.6 °F 87% 29.99 in 10.0 mi NW 11.5 mph - N/A   Overcast
7:13 AM 39.2 °F 33.6 °F 33.8 °F 81% 29.99 in 10.0 mi NW 8.1 mph - N/A   Overcast
7:33 AM 39.2 °F 32.5 °F 33.8 °F 81% 30.00 in 10.0 mi NW 10.4 mph 17.3 mph N/A   Overcast
7:53 AM 39.2 °F 33.0 °F 33.8 °F 81% 30.00 in 10.0 mi NW 9.2 mph - N/A   Overcast
8:13 AM 39.2 °F 33.0 °F 33.8 °F 81% 30.01 in 10.0 mi NW 9.2 mph - N/A   Overcast
8:33 AM 39.2 °F 33.6 °F 33.8 °F 81% 30.02 in 10.0 mi NW 8.1 mph - N/A   Overcast
8:52 AM 39.2 °F 32.0 °F 33.8 °F 81% 30.02 in 10.0 mi NW 11.5 mph 17.3 mph N/A   Overcast
9:13 AM 39.2 °F 33.0 °F 33.8 °F 81% 30.02 in 10.0 mi NW 9.2 mph - N/A   Overcast
9:33 AM 39.2 °F 31.6 °F 33.8 °F 81% 30.03 in 10.0 mi NW 12.7 mph 20.7 mph N/A   Overcast
9:53 AM 39.2 °F 30.5 °F 33.8 °F 81% 30.03 in 10.0 mi NNW 16.1 mph 21.9 mph N/A   Overcast
10:13 AM 39.2 °F 30.8 °F 32.0 °F 75% 30.04 in 10.0 mi NNW 15.0 mph 25.3 mph N/A   Overcast
10:33 AM 39.2 °F 30.8 °F 32.0 °F 75% 30.04 in 10.0 mi NNW 15.0 mph 23.0 mph N/A   Overcast
10:53 AM 39.2 °F 29.8 °F 32.0 °F 75% 30.04 in 10.0 mi NNW 18.4 mph 23.0 mph N/A   Overcast
11:13 AM 39.2 °F 31.2 °F 32.0 °F 75% 30.04 in 10.0 mi NNW 13.8 mph 19.6 mph N/A   Overcast
11:53 AM 39.2 °F 31.2 °F 32.0 °F 75% 30.04 in 10.0 mi NNW 13.8 mph - N/A   Overcast
12:13 PM 41.0 °F 32.8 °F 30.2 °F 65% 30.04 in 10.0 mi North 16.1 mph 21.9 mph N/A   Overcast
12:33 PM 41.0 °F 32.5 °F 30.2 °F 65% 30.04 in 10.0 mi North 17.3 mph 25.3 mph N/A   Overcast
12:53 PM 42.8 °F 36.2 °F 30.2 °F 61% 30.04 in 10.0 mi NNW 12.7 mph - N/A   Overcast
1:13 PM 42.8 °F 34.8 °F 30.2 °F 61% 30.04 in 10.0 mi NNW 17.3 mph 20.7 mph N/A   Overcast
1:33 PM 42.8 °F 34.8 °F 30.2 °F 61% 30.04 in 10.0 mi NNW 17.3 mph 24.2 mph N/A   Overcast
1:53 PM 42.8 °F 36.2 °F 30.2 °F 61% 30.03 in 10.0 mi NNW 12.7 mph 21.9 mph N/A   Overcast
2:13 PM 44.6 °F 39.2 °F 30.2 °F 57% 30.03 in 10.0 mi NNW 10.4 mph - N/A   Overcast
2:34 PM 44.6 °F 36.9 °F 28.4 °F 53% 30.02 in 10.0 mi North 18.4 mph 23.0 mph N/A   Overcast
2:53 PM 44.6 °F 37.2 °F 28.4 °F 53% 30.02 in 10.0 mi North 17.3 mph - N/A   Overcast
3:13 PM 44.6 °F 37.2 °F 28.4 °F 53% 30.02 in 10.0 mi NNW 17.3 mph - N/A   Scattered Clouds
3:33 PM 44.6 °F 38.1 °F 26.6 °F 49% 30.02 in 10.0 mi NW 13.8 mph 23.0 mph N/A   Scattered Clouds
3:53 PM 46.4 °F 39.2 °F 26.6 °F 46% 30.02 in 10.0 mi North 18.4 mph 24.2 mph N/A   Scattered Clouds
4:13 PM 46.4 °F 39.8 °F 26.6 °F 46% 30.02 in 10.0 mi NNW 16.1 mph 23.0 mph N/A   Clear
4:33 PM 44.6 °F 37.8 °F 26.6 °F 49% 30.02 in 10.0 mi NNW 15.0 mph 24.2 mph N/A   Clear
4:53 PM 44.6 °F 38.4 °F 24.8 °F 46% 30.02 in 10.0 mi NNW 12.7 mph - N/A   Clear
5:13 PM 44.6 °F 37.2 °F 24.8 °F 46% 30.03 in 10.0 mi NNW 17.3 mph 26.5 mph N/A   Clear
5:33 PM 44.6 °F 37.4 °F 24.8 °F 46% 30.03 in 10.0 mi NNW 16.1 mph 19.6 mph N/A   Clear
5:53 PM 44.6 °F 38.8 °F 24.8 °F 46% 30.04 in 10.0 mi NNW 11.5 mph - N/A   Clear
6:13 PM 42.8 °F 38.0 °F 24.8 °F 49% 30.04 in 10.0 mi North 8.1 mph - N/A   Clear
6:33 PM 41.0 °F 36.4 °F 26.6 °F 57% 30.05 in 10.0 mi North 6.9 mph - N/A   Clear
6:53 PM 39.2 °F 35.9 °F 26.6 °F 61% 30.06 in 10.0 mi North 4.6 mph - N/A   Clear
7:12 PM 37.4 °F 33.8 °F 26.6 °F 65% 30.07 in 10.0 mi North 4.6 mph - N/A   Clear
7:33 PM 37.4 °F 34.9 °F 26.6 °F 65% 30.07 in 10.0 mi North 3.5 mph - N/A   Clear
7:53 PM 37.4 °F 34.9 °F 26.6 °F 65% 30.08 in 10.0 mi North 3.5 mph - N/A   Clear
8:13 PM 35.6 °F 32.8 °F 26.6 °F 70% 30.08 in 10.0 mi North 3.5 mph - N/A   Clear
8:33 PM 35.6 °F 31.7 °F 26.6 °F 70% 30.08 in 10.0 mi North 4.6 mph - N/A   Clear
8:52 PM 35.6 °F - 26.6 °F 70% 30.09 in 10.0 mi Calm Calm - N/A   Clear
9:13 PM 32.0 °F 27.5 °F 26.6 °F 80% 30.09 in 10.0 mi North 4.6 mph - N/A   Clear
9:33 PM 33.8 °F 29.6 °F 28.4 °F 81% 30.09 in 10.0 mi NNW 4.6 mph - N/A   Clear
9:53 PM 32.0 °F 26.4 °F 26.6 °F 80% 30.09 in 10.0 mi NNW 5.8 mph - N/A   Clear
10:13 PM 32.0 °F 27.5 °F 26.6 °F 80% 30.09 in 10.0 mi NNW 4.6 mph - N/A   Clear
10:33 PM 30.2 °F 25.4 °F 26.6 °F 86% 30.09 in 10.0 mi NNW 4.6 mph - N/A   Clear
10:53 PM 32.0 °F 27.5 °F 26.6 °F 80% 30.09 in 10.0 mi NNW 4.6 mph - N/A   Clear
11:13 PM 32.0 °F 26.4 °F 26.6 °F 80% 30.09 in 10.0 mi NW 5.8 mph - N/A   Clear
11:33 PM 33.8 °F 27.7 °F 26.6 °F 75% 30.09 in 10.0 mi NW 6.9 mph - N/A   Clear
11:53 PM 32.0 °F 24.8 °F 26.6 °F 80% 30.09 in 10.0 mi NW 8.1 mph - N/A   Clear